Huvudsida
METAR-TAF:

METAR-TAF

Flygplatser :

Hafar Al-Batin, Saudiarabien

latitud: 27-54N, longitud: 045-32E, höjd: 413 m

METAR: saknas

Tid: 09:27 (06:27 UTC)

Väderprognos

Denna rapport gjordes för 1 timme och 27 minuter sedan, klockan 05:00 UTC
Prognos gäller från 25 kl. 06 UTC till 25 kl. 20 UTC
Vind 8 kt från syd/sydost
Sikt 10 km eller mer
Inga moln under 1 500 m eller inga cumulonimbus
Blir
från 25 kl. 10 UTC till 25 kl. 12 UTC
Vind 12 kt från syd/sydost

TAF: OEKK 250500Z 2506/2520 16008KT CAVOK BECMG 2510/2512 16012KT

Aktuella väderrapporter och prognoser från 4000 flygplatser (METAR- och TAF-rapporter).

De tillgängliga stationerna syns som gula och röda prickar på kartan.

För musen över prickarna för att se namnen på stationerna.

Klicka sedan för att få väderrapporter och prognoser.

För att ändra kartan: Klicka på de gröna knapparna med ett svart kors på för att zooma in; den gröna knappen med ett streck på för att zooma ut; eller på de gröna pilarna för angränsande kartor.


METAR-TAF: